createdAt,value
2019-01-17T00:00:58.350Z,5.20
2019-01-17T00:06:59.762Z,5.20
2019-01-17T00:10:03.570Z,5.10
2019-01-17T00:12:51.201Z,5.10
2019-01-17T00:15:45.997Z,5.20
2019-01-17T00:18:42.538Z,5.20
2019-01-17T00:21:31.071Z,5.20
2019-01-17T00:24:35.106Z,5.10
2019-01-17T00:27:19.652Z,5.10
2019-01-17T00:30:16.917Z,5.10
2019-01-17T00:33:05.974Z,5.10
2019-01-17T00:35:51.187Z,5.10
2019-01-17T00:38:58.525Z,5.10
2019-01-17T00:42:02.769Z,5.10
2019-01-17T00:45:00.655Z,5.10
2019-01-17T00:47:49.888Z,5.10
2019-01-17T00:50:37.814Z,5.10
2019-01-17T00:53:21.346Z,5.00
2019-01-17T00:56:28.167Z,5.00
2019-01-17T00:59:17.506Z,5.00
2019-01-17T01:05:16.913Z,5.10
2019-01-17T01:08:09.160Z,5.00
2019-01-17T01:11:00.758Z,5.10
2019-01-17T01:13:42.132Z,5.00
2019-01-17T01:16:31.029Z,5.00
2019-01-17T01:19:28.285Z,5.10
2019-01-17T01:22:26.644Z,5.00
2019-01-17T01:25:10.703Z,5.00
2019-01-17T01:28:02.111Z,5.00
2019-01-17T01:30:50.067Z,5.10
2019-01-17T01:33:37.383Z,5.00
2019-01-17T01:36:32.669Z,5.00
2019-01-17T01:39:39.658Z,5.00
2019-01-17T01:42:43.972Z,5.00
2019-01-17T01:45:38.588Z,5.00
2019-01-17T01:48:27.666Z,5.10
2019-01-17T01:51:15.511Z,5.10
2019-01-17T01:53:45.391Z,5.20
2019-01-17T01:56:15.371Z,5.20
2019-01-17T01:58:45.148Z,5.20
2019-01-17T02:01:15.259Z,5.30
2019-01-17T02:03:44.672Z,5.30
2019-01-17T02:06:14.899Z,5.20
2019-01-17T02:08:44.908Z,5.30
2019-01-17T02:11:14.772Z,5.20
2019-01-17T02:13:45.145Z,5.20
2019-01-17T02:16:15.257Z,5.20
2019-01-17T02:18:45.020Z,5.20
2019-01-17T02:21:14.753Z,5.20
2019-01-17T02:23:44.646Z,5.30
2019-01-17T02:26:14.242Z,5.30
2019-01-17T02:28:43.938Z,5.40
2019-01-17T02:31:13.726Z,5.40
2019-01-17T02:33:43.743Z,5.40
2019-01-17T02:36:13.586Z,5.40
2019-01-17T02:38:43.701Z,5.40
2019-01-17T02:41:13.513Z,5.30
2019-01-17T02:43:43.223Z,5.30
2019-01-17T02:46:12.930Z,5.20
2019-01-17T02:48:42.658Z,5.20
2019-01-17T02:51:12.355Z,5.10
2019-01-17T02:54:00.621Z,5.10
2019-01-17T02:56:30.254Z,5.10
2019-01-17T02:58:59.953Z,5.10
2019-01-17T03:01:29.712Z,5.10
2019-01-17T03:03:59.539Z,5.20
2019-01-17T03:06:29.132Z,5.10
2019-01-17T03:08:58.936Z,5.20
2019-01-17T03:11:28.634Z,5.20
2019-01-17T03:13:58.387Z,5.10
2019-01-17T03:16:28.008Z,5.30
2019-01-17T03:18:57.780Z,5.40
2019-01-17T03:21:28.937Z,5.30
2019-01-17T03:23:58.702Z,5.20
2019-01-17T03:26:28.575Z,5.20
2019-01-17T03:28:58.140Z,5.20
2019-01-17T03:31:27.673Z,5.10
2019-01-17T03:33:57.851Z,5.10
2019-01-17T03:36:27.626Z,5.20
2019-01-17T03:38:57.180Z,5.30
2019-01-17T03:41:26.887Z,5.20
2019-01-17T03:43:56.651Z,5.20
2019-01-17T03:46:26.652Z,5.20
2019-01-17T03:48:56.413Z,5.20
2019-01-17T03:51:26.130Z,5.20
2019-01-17T03:53:55.947Z,5.20
2019-01-17T03:56:25.691Z,5.30
2019-01-17T03:58:55.569Z,5.30
2019-01-17T04:01:24.905Z,5.30
2019-01-17T04:03:54.746Z,5.20
2019-01-17T04:06:24.585Z,5.20
2019-01-17T04:08:54.615Z,5.30
2019-01-17T04:11:24.252Z,5.20
2019-01-17T04:13:53.947Z,5.20
2019-01-17T04:16:23.646Z,5.20
2019-01-17T04:18:53.434Z,5.10
2019-01-17T04:21:23.142Z,5.20
2019-01-17T04:23:52.805Z,5.20
2019-01-17T04:26:22.664Z,5.20
2019-01-17T04:28:52.328Z,5.40
2019-01-17T04:31:22.021Z,5.30
2019-01-17T04:33:52.193Z,5.30
2019-01-17T04:36:27.964Z,5.20
2019-01-17T04:38:57.844Z,5.20
2019-01-17T04:41:27.243Z,5.30
2019-01-17T04:43:56.947Z,5.20
2019-01-17T04:46:26.404Z,5.30
2019-01-17T04:48:56.163Z,5.30
2019-01-17T04:51:25.923Z,5.30
2019-01-17T04:53:55.379Z,5.30
2019-01-17T04:56:25.203Z,5.30
2019-01-17T04:58:55.085Z,5.30
2019-01-17T05:01:24.723Z,5.30
2019-01-17T05:03:54.602Z,5.40
2019-01-17T05:06:24.241Z,5.40
2019-01-17T05:08:54.004Z,5.30
2019-01-17T05:11:23.642Z,5.40
2019-01-17T05:13:53.101Z,5.40
2019-01-17T05:16:22.556Z,5.40
2019-01-17T05:18:52.368Z,5.50
2019-01-17T05:21:22.178Z,5.50
2019-01-17T05:23:51.992Z,5.40
2019-01-17T05:26:21.843Z,5.30
2019-01-17T05:28:51.508Z,5.30
2019-01-17T05:31:21.114Z,5.30
2019-01-17T05:33:51.240Z,5.30
2019-01-17T05:36:20.881Z,5.40
2019-01-17T05:38:50.856Z,5.40
2019-01-17T05:41:20.638Z,5.40
2019-01-17T05:43:49.920Z,5.40
2019-01-17T05:46:19.673Z,5.40
2019-01-17T05:48:49.200Z,5.30
2019-01-17T05:51:18.958Z,5.30
2019-01-17T05:53:48.389Z,5.20
2019-01-17T05:56:18.239Z,5.30
2019-01-17T05:58:48.110Z,5.30
2019-01-17T06:01:18.477Z,5.30
2019-01-17T06:03:48.599Z,5.40
2019-01-17T06:06:18.183Z,5.40
2019-01-17T06:08:47.758Z,5.30
2019-01-17T06:11:17.666Z,5.20
2019-01-17T06:13:47.407Z,5.20
2019-01-17T06:16:17.098Z,5.20
2019-01-17T06:18:46.901Z,5.30
2019-01-17T06:21:16.924Z,5.20
2019-01-17T06:23:46.797Z,5.30
2019-01-17T06:26:17.405Z,5.20
2019-01-17T06:28:46.798Z,5.30
2019-01-17T06:31:16.262Z,5.30
2019-01-17T06:33:45.884Z,5.20
2019-01-17T06:36:15.655Z,5.30
2019-01-17T06:38:45.181Z,5.30
2019-01-17T06:41:14.805Z,5.40
2019-01-17T06:43:45.606Z,5.40
2019-01-17T06:46:15.434Z,5.40
2019-01-17T06:48:44.875Z,5.40
2019-01-17T06:51:14.338Z,5.30
2019-01-17T06:53:44.154Z,5.40
2019-01-17T06:56:13.649Z,5.30
2019-01-17T06:58:43.363Z,5.30
2019-01-17T07:01:13.192Z,5.30
2019-01-17T07:03:42.573Z,5.30
2019-01-17T07:06:12.831Z,5.30
2019-01-17T07:08:43.071Z,5.30
2019-01-17T07:11:12.953Z,5.40
2019-01-17T07:13:43.043Z,5.30
2019-01-17T07:16:12.716Z,5.20
2019-01-17T07:18:42.664Z,5.30
2019-01-17T07:21:12.714Z,5.30
2019-01-17T07:23:42.591Z,5.20
2019-01-17T07:26:12.832Z,5.20
2019-01-17T07:28:42.725Z,5.20
2019-01-17T07:31:12.843Z,5.20
2019-01-17T07:33:42.595Z,5.10
2019-01-17T07:36:12.711Z,5.10
2019-01-17T07:38:43.102Z,5.10
2019-01-17T07:41:12.979Z,5.00
2019-01-17T07:43:42.836Z,5.10
2019-01-17T07:46:13.192Z,5.10
2019-01-17T07:48:43.053Z,5.10
2019-01-17T07:51:13.203Z,5.20
2019-01-17T07:53:42.734Z,5.10
2019-01-17T07:56:12.281Z,5.10
2019-01-17T07:58:42.109Z,5.00
2019-01-17T08:01:15.019Z,5.10
2019-01-17T08:03:43.464Z,5.10
2019-01-17T08:06:13.480Z,5.10
2019-01-17T08:08:43.363Z,5.10
2019-01-17T08:11:13.306Z,5.10
2019-01-17T08:13:42.986Z,5.10
2019-01-17T08:16:12.532Z,5.10
2019-01-17T08:18:42.219Z,5.10
2019-01-17T08:21:11.784Z,5.10
2019-01-17T08:23:41.748Z,5.20
2019-01-17T08:26:11.443Z,5.10
2019-01-17T08:28:41.751Z,5.20
2019-01-17T08:31:11.506Z,5.30
2019-01-17T08:33:47.344Z,5.70
2019-01-17T08:36:17.264Z,6.30
2019-01-17T08:38:46.906Z,6.70
2019-01-17T08:41:16.962Z,6.70
2019-01-17T08:43:46.876Z,6.40
2019-01-17T08:46:16.786Z,6.20
2019-01-17T08:48:46.709Z,6.20
2019-01-17T08:51:16.835Z,6.10
2019-01-17T08:53:46.525Z,6.40
2019-01-17T08:56:16.244Z,6.80
2019-01-17T08:58:46.061Z,6.60
2019-01-17T09:01:15.822Z,6.40
2019-01-17T09:03:45.598Z,6.00
2019-01-17T09:06:15.340Z,5.90
2019-01-17T09:08:44.861Z,5.90
2019-01-17T09:11:15.022Z,5.80
2019-01-17T09:13:45.105Z,5.90
2019-01-17T09:16:15.108Z,5.90
2019-01-17T09:18:45.136Z,5.90
2019-01-17T09:21:15.157Z,6.00
2019-01-17T09:23:44.860Z,5.90
2019-01-17T09:26:14.504Z,6.00
2019-01-17T09:28:44.322Z,6.00
2019-01-17T09:31:14.149Z,6.20
2019-01-17T09:33:44.109Z,6.20
2019-01-17T09:36:13.901Z,6.30
2019-01-17T09:38:44.138Z,6.30
2019-01-17T09:41:14.258Z,6.30
2019-01-17T09:43:44.557Z,6.20
2019-01-17T09:46:14.627Z,6.20
2019-01-17T09:48:44.332Z,6.10
2019-01-17T09:51:14.378Z,6.20
2019-01-17T09:53:44.257Z,6.20
2019-01-17T09:56:14.943Z,6.20
2019-01-17T09:58:44.909Z,6.10
2019-01-17T10:01:14.792Z,6.10
2019-01-17T10:03:44.621Z,6.10
2019-01-17T10:06:14.207Z,6.10
2019-01-17T10:08:44.136Z,6.10
2019-01-17T10:11:14.256Z,6.10
2019-01-17T10:13:44.355Z,6.20
2019-01-17T10:16:48.695Z,6.20
2019-01-17T10:19:45.642Z,6.20
2019-01-17T10:22:52.548Z,6.00
2019-01-17T10:26:06.215Z,5.80
2019-01-17T10:29:01.654Z,5.60
2019-01-17T10:32:14.253Z,5.30
2019-01-17T10:35:28.173Z,5.10
2019-01-17T10:38:54.334Z,5.00
2019-01-17T10:41:51.343Z,4.80
2019-01-17T10:44:32.769Z,4.50
2019-01-17T10:47:41.974Z,4.30
2019-01-17T10:50:54.415Z,4.30
2019-01-17T10:54:10.818Z,4.20
2019-01-17T10:57:06.933Z,4.10
2019-01-17T10:59:50.491Z,4.30
2019-01-17T11:03:10.265Z,4.30
2019-01-17T11:05:55.061Z,4.20
2019-01-17T11:09:11.913Z,4.20
2019-01-17T11:12:56.209Z,4.10
2019-01-17T11:16:01.531Z,4.10
2019-01-17T11:18:41.370Z,3.80
2019-01-17T11:21:48.056Z,3.80
2019-01-17T11:24:54.458Z,3.80
2019-01-17T11:28:10.722Z,3.50
2019-01-17T11:31:23.167Z,3.60
2019-01-17T11:34:25.793Z,3.40
2019-01-17T11:37:23.543Z,3.60
2019-01-17T11:40:19.237Z,3.70
2019-01-17T11:43:24.211Z,3.70
2019-01-17T11:46:33.709Z,3.70
2019-01-17T11:49:16.580Z,3.80
2019-01-17T11:52:23.256Z,3.80
2019-01-17T11:55:42.086Z,3.80
2019-01-17T11:58:43.986Z,3.80
2019-01-17T12:02:05.183Z,3.60
2019-01-17T12:04:34.167Z,3.60
2019-01-17T12:07:16.289Z,3.70
2019-01-17T12:09:45.970Z,3.80
2019-01-17T12:12:20.724Z,4.00
2019-01-17T12:14:50.419Z,4.00
2019-01-17T12:17:20.354Z,4.10
2019-01-17T12:19:50.245Z,4.20
2019-01-17T12:22:20.025Z,4.00
2019-01-17T12:24:49.889Z,3.80
2019-01-17T12:27:19.713Z,4.00
2019-01-17T12:29:49.523Z,4.10
2019-01-17T12:32:19.511Z,4.20
2019-01-17T12:34:49.402Z,4.10
2019-01-17T12:37:19.296Z,4.10
2019-01-17T12:39:49.259Z,4.10
2019-01-17T12:42:19.239Z,4.20
2019-01-17T12:44:49.163Z,4.00
2019-01-17T12:47:19.283Z,4.10
2019-01-17T12:49:49.055Z,3.90
2019-01-17T12:52:18.938Z,3.80
2019-01-17T12:54:48.939Z,3.90
2019-01-17T12:57:18.564Z,3.90
2019-01-17T12:59:48.255Z,3.90
2019-01-17T13:02:18.077Z,3.90
2019-01-17T13:04:48.179Z,4.00
2019-01-17T13:07:18.350Z,4.00
2019-01-17T13:09:48.104Z,4.00
2019-01-17T13:12:17.856Z,3.90
2019-01-17T13:14:47.975Z,3.90
2019-01-17T13:17:17.952Z,3.90
2019-01-17T13:19:47.851Z,3.70
2019-01-17T13:22:17.742Z,3.60
2019-01-17T13:24:47.842Z,3.50
2019-01-17T13:27:17.911Z,3.60
2019-01-17T13:29:47.843Z,3.60
2019-01-17T13:32:17.961Z,3.70
2019-01-17T13:34:48.086Z,3.70
2019-01-17T13:37:18.090Z,3.70
2019-01-17T13:39:47.961Z,3.80
2019-01-17T13:42:20.913Z,3.80
2019-01-17T13:44:49.040Z,3.70
2019-01-17T13:47:19.157Z,3.70
2019-01-17T13:49:48.812Z,3.80
2019-01-17T13:52:18.684Z,3.90
2019-01-17T13:54:48.437Z,3.80
2019-01-17T13:57:18.253Z,3.80
2019-01-17T13:59:48.575Z,3.80
2019-01-17T14:02:18.317Z,3.80
2019-01-17T14:04:48.139Z,4.20
2019-01-17T14:07:18.079Z,4.40
2019-01-17T14:09:47.758Z,4.40
2019-01-17T14:12:18.076Z,4.50
2019-01-17T14:14:48.084Z,4.40
2019-01-17T14:17:18.110Z,4.30
2019-01-17T14:19:47.842Z,4.20
2019-01-17T14:22:17.988Z,4.20
2019-01-17T14:24:48.195Z,4.20
2019-01-17T14:27:18.392Z,4.20
2019-01-17T14:29:48.347Z,4.20
2019-01-17T14:32:18.435Z,4.10
2019-01-17T14:34:48.695Z,4.10
2019-01-17T14:37:18.657Z,4.00
2019-01-17T14:39:49.064Z,4.00
2019-01-17T14:42:19.757Z,4.10
2019-01-17T14:44:49.792Z,4.10
2019-01-17T14:47:20.005Z,4.10
2019-01-17T14:49:50.233Z,4.00
2019-01-17T14:52:19.993Z,4.00
2019-01-17T14:54:50.156Z,4.00
2019-01-17T14:57:20.786Z,4.00
2019-01-17T14:59:50.955Z,4.00
2019-01-17T15:02:21.232Z,4.00
2019-01-17T15:04:51.191Z,3.80
2019-01-17T15:07:21.109Z,3.90
2019-01-17T15:09:51.194Z,3.90
2019-01-17T15:12:21.235Z,3.80
2019-01-17T15:14:50.921Z,3.60
2019-01-17T15:17:21.284Z,3.60
2019-01-17T15:19:51.202Z,3.60
2019-01-17T15:22:21.308Z,3.70
2019-01-17T15:24:51.712Z,3.70
2019-01-17T15:27:27.178Z,3.80
2019-01-17T15:29:53.248Z,3.70
2019-01-17T15:32:23.115Z,3.50
2019-01-17T15:34:53.121Z,3.40
2019-01-17T15:37:23.231Z,3.40
2019-01-17T15:39:56.525Z,3.40
2019-01-17T15:42:26.833Z,3.30
2019-01-17T15:44:59.347Z,3.20
2019-01-17T15:47:29.422Z,3.20
2019-01-17T15:49:59.599Z,3.10
2019-01-17T15:52:32.360Z,3.20
2019-01-17T15:55:02.326Z,3.20
2019-01-17T15:57:33.966Z,3.20
2019-01-17T16:00:03.912Z,3.10
2019-01-17T16:02:33.691Z,3.00
2019-01-17T16:05:03.258Z,2.90
2019-01-17T16:07:32.969Z,2.90
2019-01-17T16:10:03.573Z,2.90
2019-01-17T16:12:33.199Z,2.80
2019-01-17T16:15:17.594Z,2.80
2019-01-17T16:17:47.420Z,2.80
2019-01-17T16:20:17.706Z,2.80
2019-01-17T16:22:47.849Z,2.70
2019-01-17T16:25:17.604Z,2.70
2019-01-17T16:27:52.907Z,2.60
2019-01-17T16:30:24.593Z,2.70
2019-01-17T16:32:55.777Z,2.60
2019-01-17T16:35:26.105Z,2.60
2019-01-17T16:37:55.920Z,2.50
2019-01-17T16:40:26.257Z,2.50
2019-01-17T16:42:56.162Z,2.50
2019-01-17T16:45:26.464Z,2.50
2019-01-17T16:47:56.344Z,2.50
2019-01-17T16:50:27.435Z,2.40
2019-01-17T16:52:57.244Z,2.40
2019-01-17T16:55:27.545Z,2.50
2019-01-17T16:57:57.085Z,2.40
2019-01-17T17:00:41.404Z,2.30
2019-01-17T17:03:11.250Z,2.30
2019-01-17T17:05:40.856Z,2.40
2019-01-17T17:08:10.743Z,2.30
2019-01-17T17:10:40.755Z,2.30
2019-01-17T17:13:10.503Z,2.40
2019-01-17T17:15:40.708Z,2.30
2019-01-17T17:18:10.997Z,2.30
2019-01-17T17:20:40.871Z,2.40
2019-01-17T17:23:10.741Z,2.30
2019-01-17T17:25:40.620Z,2.20
2019-01-17T17:28:10.378Z,2.20
2019-01-17T17:30:40.195Z,2.20
2019-01-17T17:33:09.616Z,2.30
2019-01-17T17:35:39.246Z,2.40
2019-01-17T17:38:09.178Z,2.30
2019-01-17T17:40:38.818Z,2.30
2019-01-17T17:43:08.343Z,2.30
2019-01-17T17:45:38.217Z,2.30
2019-01-17T17:48:08.372Z,2.30
2019-01-17T17:50:38.057Z,2.30
2019-01-17T17:53:07.795Z,2.30
2019-01-17T17:55:37.677Z,2.30
2019-01-17T17:58:07.375Z,2.40
2019-01-17T18:00:43.984Z,2.10
2019-01-17T18:03:13.554Z,2.10
2019-01-17T18:05:43.259Z,2.10
2019-01-17T18:08:13.375Z,2.20
2019-01-17T18:10:43.311Z,2.10
2019-01-17T18:13:13.494Z,2.00
2019-01-17T18:15:42.954Z,1.90
2019-01-17T18:18:13.018Z,1.70
2019-01-17T18:20:43.014Z,1.70
2019-01-17T18:23:12.900Z,1.70
2019-01-17T18:25:42.783Z,1.70
2019-01-17T18:28:12.593Z,1.70
2019-01-17T18:30:42.414Z,1.70
2019-01-17T18:33:12.413Z,1.80
2019-01-17T18:35:42.118Z,1.80
2019-01-17T18:38:11.813Z,1.70
2019-01-17T18:40:41.574Z,1.80
2019-01-17T18:43:11.452Z,1.70
2019-01-17T18:45:41.705Z,1.60
2019-01-17T18:48:11.386Z,1.60
2019-01-17T18:50:41.093Z,1.50
2019-01-17T18:53:10.743Z,1.50
2019-01-17T18:55:40.301Z,1.50
2019-01-17T18:58:15.559Z,1.60
2019-01-17T19:00:41.384Z,1.50
2019-01-17T19:03:10.926Z,1.50
2019-01-17T19:05:40.849Z,1.50
2019-01-17T19:08:10.734Z,1.60
2019-01-17T19:10:40.701Z,1.60
2019-01-17T19:13:10.427Z,1.60
2019-01-17T19:15:40.250Z,1.60
2019-01-17T19:18:10.188Z,1.60
2019-01-17T19:20:39.839Z,1.60
2019-01-17T19:23:09.769Z,1.60
2019-01-17T19:25:39.281Z,1.60
2019-01-17T19:28:08.931Z,1.70
2019-01-17T19:30:38.811Z,1.60
2019-01-17T19:33:08.687Z,1.60
2019-01-17T19:35:38.276Z,1.70
2019-01-17T19:38:07.970Z,1.60
2019-01-17T19:40:37.915Z,1.60
2019-01-17T19:43:07.858Z,1.50
2019-01-17T19:45:37.732Z,1.50
2019-01-17T19:48:07.656Z,1.50
2019-01-17T19:50:39.411Z,1.60
2019-01-17T19:53:10.367Z,1.60
2019-01-17T19:55:40.620Z,1.70
2019-01-17T19:58:10.074Z,1.70
2019-01-17T20:00:40.015Z,1.70
2019-01-17T20:03:10.206Z,1.60
2019-01-17T20:05:40.366Z,1.60
2019-01-17T20:08:10.500Z,1.60
2019-01-17T20:10:40.005Z,1.70
2019-01-17T20:13:10.125Z,1.70
2019-01-17T20:15:39.771Z,1.70
2019-01-17T20:18:09.763Z,1.60
2019-01-17T20:20:40.024Z,1.50
2019-01-17T20:23:09.814Z,1.50
2019-01-17T20:25:39.525Z,1.50
2019-01-17T20:28:09.406Z,1.40
2019-01-17T20:30:39.462Z,1.50
2019-01-17T20:33:09.646Z,1.60
2019-01-17T20:35:39.416Z,1.60
2019-01-17T20:38:09.414Z,1.60
2019-01-17T20:40:38.896Z,1.60
2019-01-17T20:43:24.405Z,1.60
2019-01-17T20:45:53.925Z,1.50
2019-01-17T20:48:23.805Z,1.60
2019-01-17T20:50:53.393Z,1.60
2019-01-17T20:53:23.206Z,1.60
2019-01-17T20:55:52.709Z,1.50
2019-01-17T20:58:22.603Z,1.50
2019-01-17T21:01:36.156Z,1.40
2019-01-17T21:04:07.503Z,1.40
2019-01-17T21:06:36.949Z,1.40
2019-01-17T21:09:10.240Z,1.50
2019-01-17T21:11:39.804Z,1.40
2019-01-17T21:14:09.648Z,1.50
2019-01-17T21:16:39.166Z,1.50
2019-01-17T21:19:08.680Z,1.50
2019-01-17T21:21:38.563Z,1.40
2019-01-17T21:24:08.207Z,1.40
2019-01-17T21:26:37.839Z,1.20
2019-01-17T21:29:07.668Z,1.20
2019-01-17T21:31:37.489Z,1.30
2019-01-17T21:34:07.362Z,1.30
2019-01-17T21:36:37.119Z,1.20
2019-01-17T21:39:08.855Z,1.20
2019-01-17T21:41:38.568Z,1.30
2019-01-17T21:44:08.364Z,1.20
2019-01-17T21:46:38.017Z,1.30
2019-01-17T21:49:08.614Z,1.10
2019-01-17T21:51:38.572Z,1.10
2019-01-17T21:54:08.252Z,1.30
2019-01-17T21:56:38.196Z,1.20
2019-01-17T21:59:08.081Z,1.10
2019-01-17T22:01:37.715Z,1.00
2019-01-17T22:04:07.476Z,1.10
2019-01-17T22:06:37.007Z,1.10
2019-01-17T22:09:08.683Z,1.10
2019-01-17T22:11:38.679Z,1.10
2019-01-17T22:14:08.135Z,1.10
2019-01-17T22:16:37.757Z,1.00
2019-01-17T22:19:07.847Z,1.00
2019-01-17T22:21:37.714Z,1.00
2019-01-17T22:24:07.555Z,1.00
2019-01-17T22:26:37.614Z,1.00
2019-01-17T22:29:07.511Z,1.10
2019-01-17T22:31:37.367Z,1.10
2019-01-17T22:34:07.233Z,1.10
2019-01-17T22:36:36.741Z,0.90
2019-01-17T22:39:07.913Z,0.90
2019-01-17T22:41:37.589Z,0.90
2019-01-17T22:44:07.593Z,0.80
2019-01-17T22:46:37.712Z,0.80
2019-01-17T22:49:07.953Z,0.80
2019-01-17T22:51:37.652Z,0.80
2019-01-17T22:54:07.651Z,0.80
2019-01-17T22:56:37.713Z,0.80
2019-01-17T22:59:09.375Z,0.80
2019-01-17T23:01:39.209Z,0.80
2019-01-17T23:04:09.367Z,0.90
2019-01-17T23:06:39.073Z,0.80
2019-01-17T23:09:09.414Z,0.90
2019-01-17T23:11:39.398Z,0.90
2019-01-17T23:14:15.291Z,0.90
2019-01-17T23:16:45.156Z,0.90
2019-01-17T23:19:15.194Z,1.00
2019-01-17T23:21:45.150Z,1.00
2019-01-17T23:24:15.036Z,1.10
2019-01-17T23:26:44.526Z,1.10
2019-01-17T23:29:15.997Z,1.00
2019-01-17T23:31:45.749Z,1.10
2019-01-17T23:34:15.509Z,1.00
2019-01-17T23:36:48.747Z,1.20
2019-01-17T23:39:16.469Z,1.30
2019-01-17T23:41:47.069Z,1.30
2019-01-17T23:44:16.578Z,1.20
2019-01-17T23:46:46.170Z,1.10
2019-01-17T23:49:16.397Z,1.10
2019-01-17T23:51:45.908Z,1.00
2019-01-17T23:54:15.986Z,1.00
2019-01-17T23:56:45.623Z,1.00
2019-01-17T23:59:15.451Z,1.00
